createdAt,value
2019-02-17T00:04:37.135Z,7
2019-02-17T00:09:39.797Z,6
2019-02-17T00:14:42.055Z,6
2019-02-17T00:19:44.520Z,5
2019-02-17T00:24:47.023Z,4
2019-02-17T00:29:49.430Z,5
2019-02-17T00:34:51.885Z,4
2019-02-17T00:39:54.329Z,5
2019-02-17T00:44:56.797Z,4
2019-02-17T00:49:59.268Z,5
2019-02-17T00:55:07.023Z,5
2019-02-17T01:00:04.192Z,4
2019-02-17T01:05:06.652Z,5
2019-02-17T01:10:09.312Z,4
2019-02-17T01:15:11.550Z,4
2019-02-17T01:20:14.041Z,4
2019-02-17T01:25:16.512Z,5
2019-02-17T01:30:19.070Z,5
2019-02-17T01:35:21.509Z,5
2019-02-17T01:40:23.943Z,5
2019-02-17T01:45:26.446Z,5
2019-02-17T01:50:28.911Z,5
2019-02-17T01:55:31.386Z,4
2019-02-17T02:00:33.873Z,4
2019-02-17T02:05:36.345Z,5
2019-02-17T02:10:38.827Z,5
2019-02-17T02:15:41.306Z,3
2019-02-17T02:20:43.817Z,4
2019-02-17T02:25:46.368Z,4
2019-02-17T02:30:48.751Z,4
2019-02-17T02:35:51.253Z,5
2019-02-17T02:40:53.731Z,4
2019-02-17T02:45:56.221Z,4
2019-02-17T02:50:58.738Z,4
2019-02-17T02:56:01.148Z,3
2019-02-17T03:01:03.708Z,3
2019-02-17T03:06:07.030Z,4
2019-02-17T03:11:08.573Z,5
2019-02-17T03:16:11.107Z,4
2019-02-17T03:21:13.523Z,4
2019-02-17T03:26:16.338Z,4
2019-02-17T03:31:18.496Z,4
2019-02-17T03:36:20.992Z,4
2019-02-17T03:41:23.453Z,4
2019-02-17T03:46:25.927Z,4
2019-02-17T03:51:28.410Z,4
2019-02-17T03:56:30.950Z,4
2019-02-17T04:01:33.367Z,4
2019-02-17T04:06:35.872Z,5
2019-02-17T04:11:38.328Z,5
2019-02-17T04:16:40.870Z,6
2019-02-17T04:21:43.598Z,4
2019-02-17T04:26:45.832Z,4
2019-02-17T04:31:48.246Z,4
2019-02-17T04:36:50.738Z,4
2019-02-17T04:41:53.220Z,4
2019-02-17T04:46:55.756Z,4
2019-02-17T04:51:58.439Z,5
2019-02-17T04:57:00.733Z,3
2019-02-17T05:02:08.219Z,4
2019-02-17T05:07:05.628Z,4
2019-02-17T05:12:08.099Z,4
2019-02-17T05:17:10.646Z,4
2019-02-17T05:22:13.096Z,4
2019-02-17T05:27:15.566Z,4
2019-02-17T05:32:18.029Z,4
2019-02-17T05:37:20.563Z,3
2019-02-17T05:42:23.022Z,4
2019-02-17T05:47:25.479Z,4
2019-02-17T05:52:27.975Z,4
2019-02-17T05:57:30.437Z,3
2019-02-17T06:02:32.926Z,5
2019-02-17T06:07:35.405Z,3
2019-02-17T06:12:37.875Z,4
2019-02-17T06:17:40.415Z,5
2019-02-17T06:22:42.828Z,3
2019-02-17T06:27:45.331Z,4
2019-02-17T06:32:47.812Z,3
2019-02-17T06:37:50.307Z,4
2019-02-17T06:42:52.762Z,4
2019-02-17T06:47:55.295Z,5
2019-02-17T06:52:57.767Z,6
2019-02-17T06:58:00.186Z,10
2019-02-17T07:03:02.678Z,8
2019-02-17T07:08:05.193Z,7
2019-02-17T07:13:07.626Z,5
2019-02-17T07:18:10.145Z,5
2019-02-17T07:23:12.597Z,4
2019-02-17T07:28:15.208Z,6
2019-02-17T07:33:17.615Z,6
2019-02-17T07:38:20.044Z,4
2019-02-17T07:43:22.551Z,4
2019-02-17T07:48:25.021Z,4
2019-02-17T07:53:27.499Z,5
2019-02-17T07:58:29.981Z,5
2019-02-17T08:03:32.531Z,10
2019-02-17T08:08:34.921Z,10
2019-02-17T08:13:37.408Z,7
2019-02-17T08:18:39.913Z,9
2019-02-17T08:23:42.360Z,14
2019-02-17T08:28:44.844Z,12
2019-02-17T08:33:47.340Z,10
2019-02-17T08:38:49.840Z,9
2019-02-17T08:43:52.335Z,7
2019-02-17T08:48:54.837Z,8
2019-02-17T08:53:57.374Z,8
2019-02-17T08:58:59.855Z,9
2019-02-17T09:04:02.402Z,7
2019-02-17T09:09:04.850Z,7
2019-02-17T09:14:07.315Z,8
2019-02-17T09:19:09.767Z,9
2019-02-17T09:24:12.218Z,10
2019-02-17T09:29:14.687Z,13
2019-02-17T09:34:17.252Z,11
2019-02-17T09:39:19.634Z,12
2019-02-17T09:44:22.080Z,13
2019-02-17T09:49:24.537Z,13
2019-02-17T09:54:27.140Z,10
2019-02-17T09:59:29.445Z,10
2019-02-17T10:04:31.916Z,10
2019-02-17T10:09:34.355Z,7
2019-02-17T10:14:36.831Z,8
2019-02-17T10:19:39.318Z,9
2019-02-17T10:24:41.757Z,8
2019-02-17T10:29:44.231Z,9
2019-02-17T10:34:46.673Z,8
2019-02-17T10:39:49.180Z,8
2019-02-17T10:44:51.601Z,7
2019-02-17T10:49:54.080Z,6
2019-02-17T10:54:56.512Z,7
2019-02-17T10:59:58.981Z,6
2019-02-17T11:05:01.489Z,6
2019-02-17T11:10:03.899Z,7
2019-02-17T11:15:06.359Z,6
2019-02-17T11:20:08.960Z,6
2019-02-17T11:25:11.315Z,6
2019-02-17T11:30:13.745Z,6
2019-02-17T11:35:16.273Z,6
2019-02-17T11:40:18.680Z,6
2019-02-17T11:45:21.150Z,6
2019-02-17T11:50:23.623Z,6
2019-02-17T11:55:26.070Z,6
2019-02-17T12:00:28.548Z,5
2019-02-17T12:05:30.963Z,4
2019-02-17T12:10:33.438Z,4
2019-02-17T12:15:35.911Z,4
2019-02-17T12:20:38.351Z,4
2019-02-17T12:25:40.811Z,7
2019-02-17T12:30:43.262Z,6
2019-02-17T12:35:45.734Z,6
2019-02-17T12:40:48.217Z,4
2019-02-17T12:45:50.650Z,4
2019-02-17T12:50:53.174Z,3
2019-02-17T12:55:55.646Z,3
2019-02-17T13:00:58.099Z,6
2019-02-17T13:06:00.504Z,3
2019-02-17T13:11:02.990Z,4
2019-02-17T13:16:05.529Z,6
2019-02-17T13:21:07.936Z,11
2019-02-17T13:26:10.338Z,3
2019-02-17T13:31:12.865Z,2
2019-02-17T13:36:15.242Z,2
2019-02-17T13:41:17.712Z,2
2019-02-17T13:46:20.247Z,3
2019-02-17T13:51:22.624Z,3
2019-02-17T13:56:25.112Z,2
2019-02-17T14:01:27.545Z,3
2019-02-17T14:06:30.053Z,2
2019-02-17T14:11:32.567Z,3
2019-02-17T14:16:34.944Z,3
2019-02-17T14:21:37.388Z,3
2019-02-17T14:26:39.870Z,2
2019-02-17T14:31:42.300Z,3
2019-02-17T14:36:44.767Z,3
2019-02-17T14:41:47.320Z,3
2019-02-17T14:46:49.678Z,2
2019-02-17T14:51:52.218Z,3
2019-02-17T14:56:54.619Z,5
2019-02-17T15:01:57.046Z,3
2019-02-17T15:06:59.540Z,3
2019-02-17T15:12:02.007Z,2
2019-02-17T15:17:04.435Z,3
2019-02-17T15:22:06.931Z,3
2019-02-17T15:27:09.357Z,3
2019-02-17T15:32:11.898Z,7
2019-02-17T15:37:14.257Z,7
2019-02-17T15:42:16.711Z,4
2019-02-17T15:47:19.187Z,5
2019-02-17T15:52:21.621Z,9
2019-02-17T15:57:24.155Z,10
2019-02-17T16:02:26.555Z,13
2019-02-17T16:07:29.043Z,6
2019-02-17T16:12:31.475Z,10
2019-02-17T16:17:33.977Z,16
2019-02-17T16:22:36.378Z,21
2019-02-17T16:27:38.844Z,22
2019-02-17T16:32:41.311Z,17
2019-02-17T16:37:43.762Z,9
2019-02-17T16:42:46.304Z,15
2019-02-17T16:47:48.959Z,11
2019-02-17T16:52:51.121Z,12
2019-02-17T16:57:53.602Z,31
2019-02-17T17:02:56.060Z,20
2019-02-17T17:07:58.495Z,17
2019-02-17T17:13:00.947Z,21
2019-02-17T17:18:03.487Z,21
2019-02-17T17:23:05.929Z,13
2019-02-17T17:28:08.343Z,16
2019-02-17T17:33:10.808Z,15
2019-02-17T17:38:13.261Z,12
2019-02-17T17:43:15.697Z,14
2019-02-17T17:48:18.185Z,23
2019-02-17T17:53:20.604Z,20
2019-02-17T17:58:23.064Z,15
2019-02-17T18:03:25.584Z,15
2019-02-17T18:08:27.985Z,149
2019-02-17T18:13:30.499Z,129
2019-02-17T18:18:32.897Z,86
2019-02-17T18:23:35.356Z,22
2019-02-17T18:28:37.838Z,20
2019-02-17T18:33:40.290Z,18
2019-02-17T18:38:42.717Z,14
2019-02-17T18:43:45.192Z,16
2019-02-17T18:48:47.633Z,10
2019-02-17T18:53:50.081Z,35
2019-02-17T18:58:52.851Z,16
2019-02-17T19:03:55.147Z,11
2019-02-17T19:08:57.462Z,16
2019-02-17T19:13:59.932Z,12
2019-02-17T19:19:02.447Z,11
2019-02-17T19:24:04.870Z,11
2019-02-17T19:29:07.295Z,15
2019-02-17T19:34:09.772Z,12
2019-02-17T19:39:12.290Z,49
2019-02-17T19:44:14.722Z,46
2019-02-17T19:49:17.156Z,20
2019-02-17T19:54:19.625Z,13
2019-02-17T19:59:22.129Z,15
2019-02-17T20:04:24.556Z,15
2019-02-17T20:09:26.989Z,14
2019-02-17T20:14:31.554Z,21
2019-02-17T20:19:31.918Z,22
2019-02-17T20:24:34.379Z,8
2019-02-17T20:29:37.147Z,8
2019-02-17T20:34:39.326Z,8
2019-02-17T20:39:41.899Z,8
2019-02-17T20:44:44.305Z,12
2019-02-17T20:49:46.710Z,11
2019-02-17T20:54:49.168Z,10
2019-02-17T20:59:51.636Z,10
2019-02-17T21:04:54.130Z,10
2019-02-17T21:09:56.565Z,10
2019-02-17T21:14:59.143Z,9
2019-02-17T21:20:01.543Z,10
2019-02-17T21:25:03.965Z,8
2019-02-17T21:30:06.438Z,9
2019-02-17T21:35:08.910Z,7
2019-02-17T21:40:11.364Z,8
2019-02-17T21:45:13.834Z,9
2019-02-17T21:50:16.333Z,8
2019-02-17T21:55:18.759Z,7
2019-02-17T22:00:21.298Z,10
2019-02-17T22:05:23.725Z,8
2019-02-17T22:10:26.151Z,8
2019-02-17T22:15:28.636Z,8
2019-02-17T22:20:31.131Z,8
2019-02-17T22:25:33.537Z,7
2019-02-17T22:30:36.021Z,8
2019-02-17T22:35:38.575Z,7
2019-02-17T22:40:40.934Z,8
2019-02-17T22:45:43.397Z,7
2019-02-17T22:50:45.852Z,8
2019-02-17T22:55:48.353Z,8
2019-02-17T23:00:50.808Z,8
2019-02-17T23:05:53.265Z,9
2019-02-17T23:10:55.706Z,7
2019-02-17T23:15:58.195Z,8
2019-02-17T23:21:00.661Z,9
2019-02-17T23:26:03.396Z,9
2019-02-17T23:31:05.566Z,8
2019-02-17T23:36:08.018Z,9
2019-02-17T23:41:10.486Z,9
2019-02-17T23:46:12.935Z,8
2019-02-17T23:51:15.397Z,8
2019-02-17T23:56:17.849Z,9
